Time;durP1;ratioP1;P1;durP2;ratioP2;P2;SDS_P1;SDS_P2;PMS_P1;PMS_P2;Temp;Humidity;BMP_temperature;BMP_pressure;BME280_temperature;BME280_humidity;BME280_pressure;Samples;Min_cycle;Max_cycle;Signal;HPM_P1;HPM_P2
2023/08/24 00:02:06;;;;;;;1.05;0.45;;;;;;;;;;6134307;23;20002;-72
2023/08/24 00:04:33;;;;;;;0.50;0.50;;;;;;;;;;6134480;23;20056;-72
2023/08/24 00:06:59;;;;;;;0.82;0.38;;;;;;;;;;6124861;23;20009;-72
2023/08/24 00:09:26;;;;;;;0.60;0.30;;;26.90;68.50;;;;;;6134240;23;20002;-72
2023/08/24 00:11:53;;;;;;;0.93;0.20;;;;;;;;;;6134298;23;20077;-73
2023/08/24 00:14:19;;;;;;;0.30;0.30;;;;;;;;;;6134185;23;19994;-72
2023/08/24 00:16:49;;;;;;;0.70;0.50;;;;;;;;;;6134483;23;20441;-72
2023/08/24 00:19:15;;;;;;;0.40;0.35;;;;;;;;;;6124466;23;20021;-73
2023/08/24 00:21:41;;;;;;;0.65;0.30;;;;;;;;;;6134184;23;20008;-72
2023/08/24 00:24:08;;;;;;;0.50;0.50;;;;;;;;;;6124219;23;20084;-71
2023/08/24 00:26:34;;;;;;;0.50;0.30;;;;;;;;;;6134161;23;20057;-72
2023/08/24 00:29:00;;;;;;;0.70;0.40;;;;;;;;;;6134107;23;20002;-73
2023/08/24 00:31:26;;;;;;;0.47;0.40;;;;;;;;;;6134089;23;20583;-73
2023/08/24 00:33:52;;;;;;;0.40;0.30;;;;;;;;;;6134133;23;20127;-74
2023/08/24 00:36:18;;;;;;;0.52;0.40;;;;;;;;;;6133654;23;20041;-72
2023/08/24 00:38:47;;;;;;;1.02;0.50;;;;;;;;;;6124566;23;20074;-72
2023/08/24 00:41:13;;;;;;;0.63;0.30;;;;;;;;;;6124222;23;20006;-72
2023/08/24 00:43:40;;;;;;;0.50;0.40;;;;;;;;;;6124532;23;20029;-73
2023/08/24 00:46:06;;;;;;;0.50;0.40;;;;;;;;;;6134664;23;20029;-69
2023/08/24 00:48:33;;;;;;;0.70;0.40;;;;;;;;;;6147126;23;20006;-70
2023/08/24 00:51:02;;;;;;;0.77;0.30;;;26.80;62.60;;;;;;6133861;23;20008;-70
2023/08/24 00:53:30;;;;;;;0.40;0.40;;;26.70;69.00;;;;;;6133943;23;20002;-69
2023/08/24 00:55:56;;;;;;;0.28;0.28;;;;;;;;;;6132350;23;20010;-69
2023/08/24 00:58:23;;;;;;;0.45;0.30;;;;;;;;;;6133864;23;20096;-69
2023/08/24 01:00:53;;;;;;;0.93;0.50;;;26.70;63.10;;;;;;6133829;23;19997;-69
2023/08/24 01:03:20;;;;;;;1.17;0.35;;;;;;;;;;6133722;23;20307;-68
2023/08/24 01:05:46;;;;;;;0.73;0.25;;;;;;;;;;6133913;23;20002;-69
2023/08/24 01:08:12;;;;;;;0.60;0.40;;;;;;;;;;6133893;23;19994;-69
2023/08/24 01:11:16;;;;;;;0.90;0.40;;;26.70;69.00;;;;;;6133708;23;20005;-69
2023/08/24 01:14:05;;;;;;;0.40;0.35;;;26.70;63.60;;;;;;6100303;23;20456;-69
2023/08/24 01:16:33;;;;;;;1.02;0.50;;;26.70;69.10;;;;;;6109957;23;20018;-69
2023/08/24 01:19:00;;;;;;;1.40;0.30;;;;;;;;;;6133877;23;20005;-69
2023/08/24 01:21:27;;;;;;;0.77;0.43;;;;;;;;;;6133703;23;20337;-70
2023/08/24 01:24:04;;;;;;;1.17;0.55;;;26.60;63.20;;;;;;6124402;23;20326;-70
2023/08/24 01:26:30;;;;;;;0.70;0.30;;;;;;;;;;6124461;23;20008;-70
2023/08/24 01:28:57;;;;;;;0.98;0.40;;;26.50;69.20;;;;;;6133814;23;19998;-69
2023/08/24 01:31:24;;;;;;;0.55;0.30;;;26.60;69.20;;;;;;6133854;23;20030;-69
2023/08/24 01:33:50;;;;;;;0.55;0.30;;;;;;;;;;6133683;23;19998;-70
2023/08/24 01:36:17;;;;;;;0.73;0.32;;;;;;;;;;6133395;23;20132;-70
2023/08/24 01:38:43;;;;;;;0.50;0.30;;;;;;;;;;6124246;23;20337;-70
2023/08/24 01:41:20;;;;;;;0.73;0.50;;;26.50;69.50;;;;;;6133816;23;20006;-70
2023/08/24 01:43:49;;;;;;;0.30;0.30;;;26.50;69.20;;;;;;6134325;23;20302;-70
2023/08/24 01:46:16;;;;;;;0.65;0.50;;;26.40;69.60;;;;;;6133765;23;20053;-70
2023/08/24 01:48:43;;;;;;;0.70;0.55;;;;;;;;;;6133696;23;19994;-69
2023/08/24 01:51:10;;;;;;;0.40;0.30;;;26.50;68.00;;;;;;6133625;23;19998;-69
2023/08/24 01:53:36;;;;;;;1.00;0.45;;;26.40;67.60;;;;;;6133629;23;20002;-70
2023/08/24 01:56:09;;;;;;;1.33;0.45;;;26.50;69.40;;;;;;6133567;23;20577;-72
2023/08/24 01:58:35;;;;;;;0.85;0.38;;;;;;;;;;6133548;23;20028;-72
2023/08/24 02:01:01;;;;;;;0.40;0.40;;;;;;;;;;6133607;23;19998;-72
2023/08/24 02:03:27;;;;;;;0.73;0.40;;;;;;;;;;6133490;23;20325;-72
2023/08/24 02:05:53;;;;;;;1.65;0.50;;;;;;;;;;6133601;23;20002;-73
2023/08/24 02:08:19;;;;;;;0.68;0.30;;;;;;;;;;6133543;23;20449;-72
2023/08/24 02:10:47;;;;;;;1.20;0.70;;;26.40;63.80;;;;;;6124562;23;20430;-71
2023/08/24 02:13:13;;;;;;;0.57;0.40;;;;;;;;;;6133588;23;20002;-69
2023/08/24 02:15:39;;;;;;;0.40;0.35;;;;;;;;;;6133366;23;20424;-70
2023/08/24 02:18:06;;;;;;;0.40;0.40;;;;;;;;;;6133488;23;20042;-70
2023/08/24 02:20:35;;;;;;;0.82;0.40;;;26.30;69.80;;;;;;6124126;23;20307;-70
2023/08/24 02:23:01;;;;;;;0.38;0.38;;;;;;;;;;6134205;23;20371;-73
2023/08/24 02:25:28;;;;;;;0.77;0.40;;;;;;;;;;6135460;23;20097;-73
2023/08/24 02:27:54;;;;;;;0.95;0.50;;;;;;;;;;6135300;23;20390;-73
2023/08/24 02:30:20;;;;;;;0.80;0.40;;;;;;;;;;6135319;23;20033;-73
2023/08/24 02:32:46;;;;;;;0.40;0.25;;;;;;;;;;6135242;23;20002;-73
2023/08/24 02:35:12;;;;;;;0.50;0.30;;;;;;;;;;6134986;23;20006;-73
2023/08/24 02:37:38;;;;;;;1.02;0.30;;;;;;;;;;6135071;23;20037;-72
2023/08/24 02:40:05;;;;;;;0.88;0.38;;;;;;;;;;6135771;23;19998;-72
2023/08/24 02:42:32;;;;;;;0.40;0.30;;;;;;;;;;6125673;23;20085;-72
2023/08/24 02:44:58;;;;;;;0.95;0.60;;;;;;;;;;6135073;23;20013;-72
2023/08/24 02:47:24;;;;;;;0.73;0.30;;;;;;;;;;6135073;23;20025;-73
2023/08/24 02:49:51;;;;;;;0.63;0.63;;;;;;;;;;6135170;23;20025;-73
2023/08/24 02:52:17;;;;;;;0.70;0.22;;;;;;;;;;6135141;23;20005;-70
2023/08/24 02:54:43;;;;;;;0.40;0.30;;;;;;;;;;6125293;23;20009;-70
2023/08/24 02:57:09;;;;;;;0.52;0.40;;;;;;;;;;6125524;23;20010;-70
2023/08/24 02:59:35;;;;;;;0.50;0.50;;;;;;;;;;6134978;23;20456;-70
2023/08/24 03:02:02;;;;;;;0.57;0.52;;;;;;;;;;6125376;23;20006;-70
2023/08/24 03:04:28;;;;;;;0.75;0.32;;;;;;;;;;6134944;23;20024;-70
2023/08/24 03:06:54;;;;;;;0.40;0.40;;;;;;;;;;6134886;23;19998;-69
2023/08/24 03:09:20;;;;;;;0.55;0.40;;;;;;;;;;6125970;23;20314;-72
2023/08/24 03:11:46;;;;;;;0.75;0.43;;;;;;;;;;6134975;23;20056;-73
2023/08/24 03:14:12;;;;;;;0.50;0.32;;;;;;;;;;6134790;23;20072;-72
2023/08/24 03:16:39;;;;;;;0.32;0.32;;;26.10;67.30;;;;;;6134825;23;20014;-73
2023/08/24 03:19:05;;;;;;;0.38;0.25;;;;;;;;;;6125073;23;20013;-73
2023/08/24 03:21:31;;;;;;;0.30;0.30;;;;;;;;;;6134895;23;20095;-69
2023/08/24 03:23:57;;;;;;;0.70;0.30;;;;;;;;;;6134669;23;20460;-69
2023/08/24 03:26:23;;;;;;;0.38;0.30;;;;;;;;;;6134669;23;20069;-69
2023/08/24 03:28:50;;;;;;;0.70;0.43;;;;;;;;;;6134612;23;19998;-70
2023/08/24 03:31:16;;;;;;;0.68;0.30;;;;;;;;;;6134635;23;19995;-69
2023/08/24 03:33:42;;;;;;;0.40;0.40;;;;;;;;;;6134679;23;20061;-69
2023/08/24 03:36:08;;;;;;;0.30;0.30;;;;;;;;;;6134228;23;20101;-70
2023/08/24 03:38:34;;;;;;;0.60;0.28;;;;;;;;;;6135220;23;20078;-69
2023/08/24 03:41:02;;;;;;;0.47;0.30;;;26.10;70.50;;;;;;6134601;23;20521;-70
2023/08/24 03:43:28;;;;;;;0.50;0.40;;;;;;;;;;6134641;23;20007;-69
2023/08/24 03:45:54;;;;;;;0.52;0.30;;;;;;;;;;6125192;23;20006;-70
2023/08/24 03:48:20;;;;;;;0.30;0.20;;;;;;;;;;6134604;23;19994;-72
2023/08/24 03:50:46;;;;;;;0.70;0.50;;;;;;;;;;6134680;23;20013;-72
2023/08/24 03:53:12;;;;;;;0.20;0.20;;;;;;;;;;6134269;23;19998;-72
2023/08/24 03:55:39;;;;;;;0.60;0.40;;;;;;;;;;6124917;23;20045;-73
2023/08/24 03:58:05;;;;;;;0.63;0.50;;;;;;;;;;6134285;23;20333;-72
2023/08/24 04:00:31;;;;;;;1.88;0.50;;;;;;;;;;6124820;23;20081;-72
2023/08/24 04:02:57;;;;;;;0.40;0.40;;;;;;;;;;6134291;23;20006;-74
2023/08/24 04:05:23;;;;;;;0.52;0.50;;;;;;;;;;6134795;23;20114;-69
2023/08/24 04:07:49;;;;;;;0.50;0.50;;;;;;;;;;6134308;23;19997;-69
2023/08/24 04:10:15;;;;;;;0.63;0.63;;;;;;;;;;6134196;23;20017;-70
2023/08/24 04:12:41;;;;;;;0.88;0.80;;;;;;;;;;6134233;23;19994;-70
2023/08/24 04:15:07;;;;;;;0.80;0.60;;;;;;;;;;6134107;23;20113;-69
2023/08/24 04:17:33;;;;;;;0.80;0.70;;;;;;;;;;6134186;23;20057;-70
2023/08/24 04:19:59;;;;;;;1.10;1.00;;;;;;;;;;6134246;23;20429;-70
2023/08/24 04:22:25;;;;;;;1.00;1.00;;;;;;;;;;6134110;23;20009;-69
2023/08/24 04:24:51;;;;;;;1.15;1.15;;;;;;;;;;6134121;23;20418;-69
2023/08/24 04:27:17;;;;;;;1.20;1.10;;;;;;;;;;6124322;23;20513;-69
2023/08/24 04:29:44;;;;;;;1.10;1.10;;;;;;;;;;6124463;23;20069;-69
2023/08/24 04:32:10;;;;;;;1.17;1.08;;;;;;;;;;6124653;23;20028;-70
2023/08/24 04:34:36;;;;;;;1.10;1.10;;;;;;;;;;6134575;23;20026;-72
2023/08/24 04:37:02;;;;;;;1.40;1.02;;;;;;;;;;6124208;23;20362;-72
2023/08/24 04:39:30;;;;;;;1.10;1.10;;;;;;;;;;6124077;23;20029;-72
2023/08/24 04:41:56;;;;;;;1.45;1.33;;;;;;;;;;6124049;23;20414;-72
2023/08/24 04:44:24;;;;;;;1.60;1.50;;;;;;;;;;6124079;23;20080;-73
2023/08/24 04:46:50;;;;;;;0.93;0.93;;;;;;;;;;6124583;23;20020;-73
2023/08/24 04:49:16;;;;;;;1.38;1.27;;;;;;;;;;6134059;23;20105;-73
2023/08/24 04:51:42;;;;;;;1.45;1.35;;;;;;;;;;6134050;23;19997;-73
2023/08/24 04:54:09;;;;;;;1.20;1.13;;;;;;;;;;6133952;23;20291;-73
2023/08/24 04:56:35;;;;;;;0.98;0.98;;;;;;;;;;6133951;23;20382;-72
2023/08/24 04:59:02;;;;;;;1.20;1.10;;;;;;;;;;6132337;23;20002;-71
2023/08/24 05:01:31;;;;;;;1.10;1.10;;;25.70;71.10;;;;;;6132210;23;20009;-72
2023/08/24 05:03:57;;;;;;;1.02;1.02;;;;;;;;;;6147690;23;20335;-70
2023/08/24 05:06:23;;;;;;;0.95;0.80;;;;;;;;;;6133850;23;20315;-70
2023/08/24 05:08:49;;;;;;;0.93;0.85;;;;;;;;;;6133888;23;20053;-69
2023/08/24 05:11:18;;;;;;;1.17;1.10;;;25.70;71.50;;;;;;6133966;23;19998;-69
2023/08/24 05:13:44;;;;;;;0.82;0.80;;;;;;;;;;6133965;23;20002;-69
2023/08/24 05:16:10;;;;;;;0.60;0.60;;;;;;;;;;6124073;23;20029;-69
2023/08/24 05:18:37;;;;;;;0.82;0.70;;;;;;;;;;6124320;23;20100;-69
2023/08/24 05:21:04;;;;;;;0.90;0.90;;;;;;;;;;6124052;23;20449;-69
2023/08/24 05:23:30;;;;;;;0.63;0.60;;;25.70;69.00;;;;;;6146953;23;20487;-69
2023/08/24 05:26:00;;;;;;;0.60;0.60;;;25.60;65.40;;;;;;6134175;23;20002;-69
2023/08/24 05:28:27;;;;;;;1.50;0.93;;;;;;;;;;6133895;23;20002;-69
2023/08/24 05:30:53;;;;;;;0.50;0.50;;;;;;;;;;6133875;23;20036;-71
2023/08/24 05:33:20;;;;;;;0.80;0.80;;;25.60;71.30;;;;;;6133991;23;20005;-72
2023/08/24 05:35:46;;;;;;;0.80;0.80;;;;;;;;;;6133822;23;20017;-71
2023/08/24 05:38:13;;;;;;;0.55;0.40;;;25.90;71.50;;;;;;6133690;23;20057;-72
2023/08/24 05:40:41;;;;;;;1.55;0.57;;;;;;;;;;6124422;23;20029;-73
2023/08/24 05:43:07;;;;;;;1.75;0.73;;;;;;;;;;6133986;23;20065;-73
2023/08/24 05:45:33;;;;;;;1.10;0.60;;;;;;;;;;6133836;23;20442;-72
2023/08/24 05:47:59;;;;;;;1.13;0.60;;;;;;;;;;6124244;23;20025;-74
2023/08/24 05:50:25;;;;;;;0.45;0.40;;;;;;;;;;6124740;23;20295;-73
2023/08/24 05:52:51;;;;;;;0.60;0.50;;;;;;;;;;6133583;23;20005;-72
2023/08/24 05:55:17;;;;;;;0.50;0.50;;;;;;;;;;6133523;23;20006;-73
2023/08/24 05:57:43;;;;;;;0.98;0.80;;;;;;;;;;6134011;23;20315;-72
2023/08/24 06:00:09;;;;;;;0.63;0.52;;;;;;;;;;6135442;23;20001;-69
2023/08/24 06:02:36;;;;;;;1.13;0.80;;;25.50;68.70;;;;;;6135098;23;20013;-72
2023/08/24 06:05:03;;;;;;;2.47;0.70;;;;;;;;;;6125461;23;20001;-73
2023/08/24 06:07:29;;;;;;;1.08;0.57;;;25.50;71.10;;;;;;6125832;23;20084;-72
2023/08/24 06:09:59;;;;;;;1.05;0.60;;;25.50;71.40;;;;;;6125548;23;20002;-73
2023/08/24 06:12:25;;;;;;;1.27;0.60;;;;;;;;;;6125793;23;20370;-72
2023/08/24 06:14:52;;;;;;;0.70;0.40;;;;;;;;;;6125482;23;20077;-71
2023/08/24 06:17:18;;;;;;;0.80;0.57;;;;;;;;;;6125883;23;20009;-70
2023/08/24 06:19:45;;;;;;;1.30;0.57;;;;;;;;;;6125683;23;20009;-70
2023/08/24 06:22:11;;;;;;;0.93;0.47;;;;;;;;;;6125857;23;20002;-69
2023/08/24 06:24:37;;;;;;;1.65;0.57;;;;;;;;;;6125276;23;20002;-69
2023/08/24 06:27:04;;;;;;;1.08;0.40;;;;;;;;;;6125628;23;20366;-71
2023/08/24 06:29:31;;;;;;;0.68;0.50;;;;;;;;;;6125380;23;20013;-72
2023/08/24 06:31:57;;;;;;;1.38;0.70;;;;;;;;;;6125809;23;20085;-74
2023/08/24 06:34:23;;;;;;;0.85;0.60;;;;;;;;;;6125275;23;20082;-75
2023/08/24 06:36:50;;;;;;;1.35;0.60;;;25.50;69.90;;;;;;6124847;23;20014;-74
2023/08/24 06:39:17;;;;;;;0.77;0.65;;;;;;;;;;6125632;23;19998;-75
2023/08/24 06:41:43;;;;;;;1.48;0.73;;;;;;;;;;6125494;23;20025;-73
2023/08/24 06:44:10;;;;;;;1.35;0.70;;;;;;;;;;6125077;23;20429;-76
2023/08/24 06:46:36;;;;;;;1.42;0.68;;;;;;;;;;6126040;23;20009;-72
2023/08/24 06:49:03;;;;;;;0.80;0.68;;;;;;;;;;6134996;23;20037;-72
2023/08/24 06:51:29;;;;;;;1.48;0.85;;;;;;;;;;6135196;23;20002;-71
2023/08/24 06:53:55;;;;;;;2.83;0.65;;;;;;;;;;6135055;23;20009;-71
2023/08/24 06:56:21;;;;;;;0.47;0.35;;;;;;;;;;6135063;23;20042;-71
2023/08/24 06:58:47;;;;;;;1.42;0.80;;;25.50;71.80;;;;;;6135024;23;20431;-77
2023/08/24 07:01:13;;;;;;;0.85;0.70;;;;;;;;;;6134952;23;20077;-75
2023/08/24 07:03:39;;;;;;;2.25;0.70;;;;;;;;;;6134730;23;20018;-73
2023/08/24 07:06:08;;;;;;;1.77;0.70;;;25.70;66.20;;;;;;6134780;23;20085;-75
2023/08/24 07:08:34;;;;;;;0.70;0.50;;;25.70;69.40;;;;;;6134788;23;19998;-75
2023/08/24 07:11:02;;;;;;;1.38;0.60;;;25.70;69.60;;;;;;6134874;23;20008;-76
2023/08/24 07:13:28;;;;;;;2.58;0.75;;;;;;;;;;6135002;23;20152;-76
2023/08/24 07:15:55;;;;;;;0.88;0.50;;;;;;;;;;6135153;23;20361;-71
2023/08/24 07:18:21;;;;;;;0.77;0.60;;;;;;;;;;6134749;23;20032;-70
2023/08/24 07:20:47;;;;;;;2.08;0.77;;;;;;;;;;6134755;23;20002;-70
2023/08/24 07:23:13;;;;;;;0.82;0.50;;;;;;;;;;6134287;23;20041;-70
2023/08/24 07:25:39;;;;;;;2.75;0.80;;;;;;;;;;6134422;23;20425;-76
2023/08/24 07:28:05;;;;;;;1.60;0.70;;;;;;;;;;6134728;23;19994;-79
2023/08/24 07:30:31;;;;;;;1.15;0.80;;;25.80;68.80;;;;;;6135055;23;20378;-76
2023/08/24 07:32:58;;;;;;;0.93;0.70;;;;;;;;;;6134858;23;20052;-75
2023/08/24 07:35:27;;;;;;;1.10;0.60;;;;;;;;;;6134563;23;20338;-76
2023/08/24 07:37:53;;;;;;;1.10;0.80;;;;;;;;;;6134578;23;20069;-74
2023/08/24 07:40:20;;;;;;;1.85;0.77;;;;;;;;;;6134292;23;20133;-74
2023/08/24 07:42:54;;;;;;;1.15;0.90;;;25.70;66.40;;;;;;6134773;23;20025;-70
2023/08/24 07:45:40;;;;;;;1.30;0.63;;;;;;;;;;6124848;23;20466;-69
2023/08/24 07:48:25;;;;;;;3.33;1.00;;;;;;;;;;6124799;23;20040;-71
2023/08/24 07:51:11;;;;;;;0.80;0.80;;;;;;;;;;6124444;23;20002;-71
2023/08/24 07:53:57;;;;;;;1.08;0.80;;;;;;;;;;6124695;23;20059;-71
2023/08/24 07:56:43;;;;;;;1.10;0.80;;;;;;;;;;6124524;23;20014;-71
2023/08/24 07:59:28;;;;;;;1.90;1.30;;;;;;;;;;6124474;23;20010;-71
2023/08/24 08:02:15;;;;;;;1.92;1.35;;;;;;;;;;6124164;23;20049;-71
2023/08/24 08:05:00;;;;;;;1.38;1.20;;;;;;;;;;6124493;23;20521;-71
2023/08/24 08:07:27;;;;;;;1.73;1.40;;;;;;;;;;6134141;23;20022;-71
2023/08/24 08:10:13;;;;;;;5.10;1.20;;;;;;;;;;6124364;23;20044;-69
2023/08/24 08:12:39;;;;;;;3.80;1.63;;;;;;;;;;6134564;23;20002;-74
2023/08/24 08:15:05;;;;;;;1.88;1.40;;;;;;;;;;6133871;23;20002;-75
2023/08/24 08:17:33;;;;;;;1.98;1.50;;;25.90;73.50;;;;;;6134015;23;19998;-74
2023/08/24 08:19:59;;;;;;;4.35;1.77;;;;;;;;;;6133854;23;20033;-74
2023/08/24 08:22:25;;;;;;;3.03;1.88;;;;;;;;;;6133762;23;20036;-73
2023/08/24 08:24:54;;;;;;;3.08;2.20;;;;;;;;;;6134115;23;19994;-73
2023/08/24 08:27:20;;;;;;;3.35;1.73;;;;;;;;;;6124254;23;20002;-75
2023/08/24 08:29:46;;;;;;;3.40;1.88;;;;;;;;;;6134534;23;19994;-76
2023/08/24 08:32:12;;;;;;;3.53;1.90;;;;;;;;;;6134291;23;20450;-74
2023/08/24 08:34:38;;;;;;;2.92;1.73;;;;;;;;;;6133856;23;20021;-73
2023/08/24 08:37:04;;;;;;;3.45;2.05;;;;;;;;;;6133499;23;20010;-74
2023/08/24 08:39:31;;;;;;;2.42;1.90;;;;;;;;;;6133803;23;20028;-74
2023/08/24 08:41:57;;;;;;;2.45;1.98;;;;;;;;;;6134412;23;20032;-77
2023/08/24 08:44:23;;;;;;;2.95;1.88;;;26.00;72.20;;;;;;6124374;23;20053;-76
2023/08/24 08:46:50;;;;;;;3.95;2.25;;;;;;;;;;6124639;23;20029;-75
2023/08/24 08:49:17;;;;;;;3.80;2.03;;;26.00;71.90;;;;;;6133874;23;20026;-76
2023/08/24 08:51:43;;;;;;;4.63;2.20;;;;;;;;;;6134007;23;19998;-71
2023/08/24 08:54:09;;;;;;;3.30;1.98;;;;;;;;;;6134037;23;20271;-71
2023/08/24 08:56:35;;;;;;;2.53;2.17;;;;;;;;;;6133628;23;20006;-69
2023/08/24 08:59:01;;;;;;;5.72;2.42;;;;;;;;;;6133784;23;19994;-69
2023/08/24 09:01:27;;;;;;;2.85;2.30;;;;;;;;;;6133665;23;20021;-69
2023/08/24 09:03:54;;;;;;;2.95;2.05;;;;;;;;;;6133750;23;20001;-69
2023/08/24 09:06:21;;;;;;;4.28;2.20;;;26.00;74.30;;;;;;6133776;23;19998;-69
2023/08/24 09:08:48;;;;;;;2.17;1.98;;;26.10;75.10;;;;;;6134378;23;20395;-74
2023/08/24 09:11:17;;;;;;;4.68;2.00;;;25.20;74.00;;;;;;6133820;23;20008;-76
2023/08/24 09:13:43;;;;;;;4.05;2.50;;;;;;;;;;6133772;23;20005;-75
2023/08/24 09:16:14;;;;;;;2.83;2.40;;;;;;;;;;6133768;23;20006;-75
2023/08/24 09:18:45;;;;;;;4.35;2.17;;;26.40;75.10;;;;;;6133904;23;20338;-75
2023/08/24 09:21:13;;;;;;;4.25;2.40;;;26.20;74.70;;;;;;6133855;23;20088;-70
2023/08/24 09:23:59;;;;;;;3.92;2.47;;;26.10;71.80;;;;;;6133681;23;19997;-70
2023/08/24 09:26:29;;;;;;;3.30;2.30;;;26.20;66.20;;;;;;6123327;23;20013;-70
2023/08/24 09:28:55;;;;;;;2.97;2.15;;;;;;;;;;6133539;23;20338;-70
2023/08/24 09:31:21;;;;;;;3.72;2.30;;;;;;;;;;6133718;23;19998;-70
2023/08/24 09:33:48;;;;;;;3.15;2.30;;;;;;;;;;6135507;23;20077;-70
2023/08/24 09:36:14;;;;;;;4.07;2.35;;;26.30;72.20;;;;;;6135226;23;20026;-70
2023/08/24 09:38:47;;;;;;;2.60;2.10;;;26.30;72.40;;;;;;6136335;23;20311;-76
2023/08/24 09:41:13;;;;;;;2.55;2.35;;;;;;;;;;6126390;23;20002;-76
2023/08/24 09:43:40;;;;;;;3.03;2.72;;;26.20;72.40;;;;;;6135530;23;20002;-76
2023/08/24 09:46:07;;;;;;;2.42;2.15;;;;;;;;;;6135646;23;20008;-75
2023/08/24 09:48:34;;;;;;;3.90;2.33;;;;;;;;;;6135665;23;20022;-76
2023/08/24 09:51:03;;;;;;;3.22;1.90;;;26.30;72.60;;;;;;6135588;23;19998;-75
2023/08/24 09:53:33;;;;;;;3.15;2.58;;;26.30;72.60;;;;;;6125986;23;19998;-75
2023/08/24 09:56:02;;;;;;;2.83;2.33;;;26.10;66.70;;;;;;6135582;23;20338;-75
2023/08/24 09:58:29;;;;;;;4.65;2.42;;;26.80;69.90;;;;;;6135620;23;19998;-75
2023/08/24 10:00:55;;;;;;;3.20;1.90;;;26.30;72.10;;;;;;6135457;23;20008;-75
2023/08/24 10:03:26;;;;;;;6.45;2.90;;;26.40;72.80;;;;;;6135422;23;19998;-75
2023/08/24 10:05:53;;;;;;;3.17;2.13;;;26.30;73.00;;;;;;6135973;23;20005;-74
2023/08/24 10:08:34;;;;;;;2.58;2.00;;;26.30;66.90;;;;;;6135185;23;20002;-75
2023/08/24 10:11:00;;;;;;;3.55;2.22;;;;;;;;;;6135422;23;20100;-75
2023/08/24 10:13:35;;;;;;;4.28;2.25;;;26.40;67.70;;;;;;6135325;23;20069;-74
2023/08/24 10:16:01;;;;;;;3.15;2.20;;;;;;;;;;6135244;23;20049;-76
2023/08/24 10:18:29;;;;;;;4.55;2.08;;;;;;;;;;6135404;23;19998;-76
2023/08/24 10:20:56;;;;;;;2.20;2.00;;;26.40;72.80;;;;;;6135628;23;20059;-78
2023/08/24 10:23:22;;;;;;;4.32;2.13;;;26.40;70.00;;;;;;6135092;23;19994;-77
2023/08/24 10:25:51;;;;;;;7.32;2.22;;;26.40;73.00;;;;;;6135129;23;20181;-77
2023/08/24 10:28:18;;;;;;;3.78;2.47;;;26.40;73.20;;;;;;6135038;23;19994;-76
2023/08/24 10:30:45;;;;;;;4.70;2.17;;;26.40;73.10;;;;;;6135080;23;19998;-76
2023/08/24 10:33:13;;;;;;;3.20;2.10;;;26.50;73.30;;;;;;6135196;23;20005;-76
2023/08/24 10:35:40;;;;;;;3.72;2.25;;;26.40;73.10;;;;;;6135022;23;20010;-76
2023/08/24 10:38:07;;;;;;;3.33;2.38;;;;;;;;;;6134970;23;20010;-75
2023/08/24 10:40:37;;;;;;;4.10;2.30;;;26.40;67.40;;;;;;6134926;23;20002;-77
2023/08/24 10:43:04;;;;;;;;;;;26.60;74.00;;;;;;6135177;23;19998;-76
2023/08/24 10:45:58;;;;;;;4.32;2.22;;;26.50;73.50;;;;;;6125277;23;20321;-77
2023/08/24 10:48:44;;;;;;;2.65;2.33;;;26.50;72.00;;;;;;6135012;23;20073;-77
2023/08/24 10:51:22;;;;;;;4.32;2.75;;;26.80;67.70;;;;;;6111231;23;20291;-77
2023/08/24 10:53:53;;;;;;;4.70;2.30;;;26.40;73.20;;;;;;6134861;23;20464;-71
2023/08/24 10:56:20;;;;;;;8.82;2.60;;;26.50;72.20;;;;;;6134950;23;20095;-71
2023/08/24 10:58:47;;;;;;;3.85;1.92;;;;;;;;;;6134782;23;20131;-71
2023/08/24 11:01:21;;;;;;;3.17;2.17;;;28.30;69.00;;;;;;6134814;23;19998;-70
2023/08/24 11:03:56;;;;;;;2.92;2.10;;;26.50;68.00;;;;;;6134792;23;20002;-70
2023/08/24 11:06:25;;;;;;;2.55;2.00;;;26.50;73.50;;;;;;6134807;23;19998;-70
2023/08/24 11:09:13;;;;;;;2.90;2.20;;;26.50;73.70;;;;;;6134670;23;20025;-69
2023/08/24 11:11:42;;;;;;;3.80;2.20;;;26.60;70.20;;;;;;6125321;23;20002;-70
2023/08/24 11:14:36;;;;;;;1.90;1.80;;;26.60;67.90;;;;;;6134917;23;20009;-74
2023/08/24 11:17:17;;;;;;;3.00;2.38;;;26.60;71.10;;;;;;6124213;23;20014;-77
2023/08/24 11:19:54;;;;;;;3.85;2.35;;;26.10;73.40;;;;;;6134830;23;20001;-77
2023/08/24 11:22:21;;;;;;;4.82;2.95;;;;;;;;;;6134752;23;20434;-77
2023/08/24 11:24:47;;;;;;;4.03;2.40;;;;;;;;;;6134882;23;20036;-79
2023/08/24 11:27:14;;;;;;;7.22;2.47;;;;;;;;;;6134582;23;19998;-75
2023/08/24 11:29:40;;;;;;;4.47;2.55;;;;;;;;;;6125429;23;20006;-69
2023/08/24 11:32:07;;;;;;;4.38;2.92;;;;;;;;;;6125173;23;19998;-70
2023/08/24 11:34:35;;;;;;;3.63;2.60;;;26.70;73.50;;;;;;6125132;23;20010;-71
2023/08/24 11:37:02;;;;;;;3.05;2.10;;;;;;;;;;6124635;23;20033;-70
2023/08/24 11:39:32;;;;;;;3.63;2.60;;;;;;;;;;6124973;23;20002;-71
2023/08/24 11:42:05;;;;;;;4.70;2.38;;;26.70;67.50;;;;;;6124976;23;20099;-70
2023/08/24 11:44:47;;;;;;;3.05;2.47;;;26.80;67.60;;;;;;6134573;23;20005;-69
2023/08/24 11:47:14;;;;;;;5.18;2.60;;;;;;;;;;6134440;23;20018;-70
2023/08/24 11:49:40;;;;;;;5.13;2.63;;;;;;;;;;6134431;23;20026;-69
2023/08/24 11:52:06;;;;;;;5.95;2.70;;;;;;;;;;6134455;23;19994;-69
2023/08/24 11:54:38;;;;;;;3.78;2.28;;;26.80;67.50;;;;;;6134371;23;20002;-69
2023/08/24 11:57:08;;;;;;;3.83;2.40;;;26.90;73.30;;;;;;6134120;23;20010;-70
2023/08/24 11:59:35;;;;;;;4.53;2.45;;;26.80;73.30;;;;;;6125502;23;20026;-72
2023/08/24 12:02:03;;;;;;;3.85;2.53;;;26.80;73.20;;;;;;6134191;23;20429;-73
2023/08/24 12:04:38;;;;;;;3.15;2.28;;;26.80;73.30;;;;;;6124437;23;20006;-74
2023/08/24 12:07:13;;;;;;;2.83;2.28;;;26.80;67.70;;;;;;6124797;23;19998;-73
2023/08/24 12:09:40;;;;;;;5.35;2.63;;;;;;;;;;6124657;23;20409;-74
2023/08/24 12:12:16;;;;;;;3.58;2.60;;;26.80;73.20;;;;;;6124800;23;19998;-73
2023/08/24 12:14:43;;;;;;;5.72;2.20;;;26.80;73.20;;;;;;6124527;23;19994;-75
2023/08/24 12:17:10;;;;;;;4.38;2.42;;;;;;;;;;6124666;23;20010;-75
2023/08/24 12:19:36;;;;;;;3.58;2.40;;;;;;;;;;6134282;23;19998;-75
2023/08/24 12:22:02;;;;;;;5.57;2.25;;;;;;;;;;6134248;23;20002;-75
2023/08/24 12:24:28;;;;;;;3.70;2.25;;;;;;;;;;6134127;23;20006;-76
2023/08/24 12:26:58;;;;;;;3.85;2.50;;;26.50;67.60;;;;;;6134720;23;20006;-69
2023/08/24 12:29:24;;;;;;;;;;;26.90;73.70;;;;;;6125187;23;20072;-70
2023/08/24 12:31:50;;;;;;;2.83;2.55;;;;;;;;;;6124650;23;20025;-70
2023/08/24 12:34:17;;;;;;;3.58;2.70;;;;;;;;;;6124571;23;20009;-69
2023/08/24 12:36:43;;;;;;;5.30;3.75;;;;;;;;;;6123944;23;20425;-69
2023/08/24 12:39:12;;;;;;;3.10;2.80;;;27.40;72.60;;;;;;6124574;23;20009;-69
2023/08/24 12:41:39;;;;;;;3.88;2.92;;;;;;;;;;6124638;23;20005;-69
2023/08/24 12:44:05;;;;;;;3.50;2.92;;;;;;;;;;6124267;23;20002;-69
2023/08/24 12:46:32;;;;;;;4.63;2.53;;;27.80;71.20;;;;;;6124566;23;20006;-70
2023/08/24 12:48:59;;;;;;;2.80;2.38;;;;;;;;;;6124526;23;20002;-69
2023/08/24 12:51:25;;;;;;;3.35;2.97;;;;;;;;;;6124133;23;20060;-68
2023/08/24 12:53:52;;;;;;;2.50;2.15;;;;;;;;;;6124393;23;20002;-70
2023/08/24 12:56:18;;;;;;;2.47;2.20;;;;;;;;;;6124932;23;20024;-69
2023/08/24 12:58:45;;;;;;;3.35;2.40;;;;;;;;;;6124062;23;20001;-70
2023/08/24 13:01:12;;;;;;;5.13;2.70;;;;;;;;;;6124143;23;20006;-70
2023/08/24 13:03:39;;;;;;;3.35;2.20;;;;;;;;;;6123999;23;20192;-68
2023/08/24 13:06:06;;;;;;;3.00;2.35;;;;;;;;;;6123956;23;20005;-75
2023/08/24 13:08:32;;;;;;;2.72;2.00;;;;;;;;;;6124377;23;20334;-75
2023/08/24 13:10:59;;;;;;;4.00;2.70;;;;;;;;;;6124556;23;20010;-76
2023/08/24 13:13:25;;;;;;;3.45;2.83;;;;;;;;;;6123891;23;20029;-75
2023/08/24 13:15:52;;;;;;;2.65;2.05;;;;;;;;;;6124263;23;20036;-76
2023/08/24 13:18:18;;;;;;;5.03;2.58;;;;;;;;;;6124099;23;20081;-76
2023/08/24 13:20:45;;;;;;;2.50;2.30;;;;;;;;;;6124174;23;20073;-75
2023/08/24 13:23:11;;;;;;;3.80;2.22;;;;;;;;;;6134411;23;20327;-70
2023/08/24 13:25:37;;;;;;;2.83;2.40;;;;;;;;;;6133647;23;20245;-69
2023/08/24 13:28:03;;;;;;;2.33;1.83;;;;;;;;;;6133718;23;19994;-69
2023/08/24 13:30:29;;;;;;;3.83;2.38;;;;;;;;;;6133675;23;20022;-71
2023/08/24 13:32:56;;;;;;;3.83;2.13;;;;;;;;;;6124278;23;20010;-71
2023/08/24 13:35:22;;;;;;;3.95;1.98;;;;;;;;;;6123870;23;20006;-71
2023/08/24 13:37:50;;;;;;;2.83;2.33;;;;;;;;;;6123606;23;20461;-70
2023/08/24 13:40:17;;;;;;;3.55;2.33;;;;;;;;;;6124217;23;20373;-70
2023/08/24 13:42:43;;;;;;;3.78;2.35;;;;;;;;;;6124049;23;20021;-71
2023/08/24 13:45:10;;;;;;;3.47;2.10;;;;;;;;;;6124077;23;20026;-70
2023/08/24 13:47:36;;;;;;;3.03;2.28;;;;;;;;;;6124144;23;20002;-70
2023/08/24 13:50:03;;;;;;;2.90;2.65;;;;;;;;;;6124063;23;20033;-71
2023/08/24 13:52:29;;;;;;;3.80;2.65;;;;;;;;;;6124696;23;20006;-70
2023/08/24 13:54:56;;;;;;;3.45;2.13;;;;;;;;;;6124115;23;20061;-70
2023/08/24 13:57:22;;;;;;;2.40;2.10;;;;;;;;;;6123780;23;20468;-70
2023/08/24 13:59:49;;;;;;;3.92;2.53;;;;;;;;;;6123750;23;20017;-70
2023/08/24 14:02:15;;;;;;;4.45;2.85;;;;;;;;;;6123650;23;20068;-70
2023/08/24 14:04:42;;;;;;;3.50;2.40;;;;;;;;;;6123938;23;20048;-71
2023/08/24 14:07:09;;;;;;;2.53;2.25;;;;;;;;;;6122306;23;20018;-70
2023/08/24 14:09:35;;;;;;;4.57;2.45;;;;;;;;;;6123799;23;20002;-70
2023/08/24 14:12:02;;;;;;;2.50;2.20;;;;;;;;;;6123808;23;20002;-70
2023/08/24 14:14:28;;;;;;;3.83;2.45;;;;;;;;;;6124037;23;20006;-69